Time;durP1;ratioP1;P1;durP2;ratioP2;P2;SDS_P1;SDS_P2;PMS_P1;PMS_P2;Temp;Humidity;BMP_temperature;BMP_pressure;BME280_temperature;BME280_humidity;BME280_pressure;Samples;Min_cycle;Max_cycle;Signal;HPM_P1;HPM_P2
2021/11/23 00:00:46;;;;;;;2.63;1.25;;;8.50;51.00;;;;;;4899931;29;20036;-80
2021/11/23 00:03:13;;;;;;;2.30;1.50;;;8.50;51.20;;;;;;4901519;29;20476;-80
2021/11/23 00:05:41;;;;;;;3.95;1.33;;;8.50;51.10;;;;;;4896688;29;21124;-80
2021/11/23 00:08:09;;;;;;;2.05;1.30;;;8.50;51.00;;;;;;4901515;29;20638;-80
2021/11/23 00:10:36;;;;;;;2.25;1.20;;;8.40;51.10;;;;;;4901591;29;20051;-80
2021/11/23 00:13:02;;;;;;;2.05;1.23;;;8.50;51.20;;;;;;4902699;29;20046;-80
2021/11/23 00:15:28;;;;;;;1.65;1.15;;;8.40;51.20;;;;;;4902560;29;20439;-79
2021/11/23 00:17:54;;;;;;;2.90;1.20;;;8.40;51.20;;;;;;4902395;29;20036;-80
2021/11/23 00:20:21;;;;;;;2.00;1.25;;;8.40;51.20;;;;;;4902941;29;20492;-79
2021/11/23 00:22:46;;;;;;;1.90;1.30;;;8.40;51.30;;;;;;4903815;29;20064;-79
2021/11/23 00:25:12;;;;;;;2.00;1.30;;;8.40;51.20;;;;;;4901539;29;20484;-79
2021/11/23 00:27:38;;;;;;;1.80;1.33;;;8.40;51.20;;;;;;4902797;29;20046;-79
2021/11/23 00:30:05;;;;;;;2.67;1.35;;;8.30;51.00;;;;;;4901367;29;20032;-79
2021/11/23 00:32:31;;;;;;;2.25;1.42;;;8.40;51.00;;;;;;4901778;29;20569;-79
2021/11/23 00:34:57;;;;;;;2.80;1.30;;;8.40;51.00;;;;;;4902806;29;20040;-79
2021/11/23 00:37:22;;;;;;;3.13;1.30;;;8.30;50.90;;;;;;4902210;29;20384;-79
2021/11/23 00:39:50;;;;;;;2.83;1.20;;;8.30;50.90;;;;;;4901110;29;20067;-79
2021/11/23 00:42:16;;;;;;;2.72;1.42;;;8.30;50.90;;;;;;4903143;29;20074;-79
2021/11/23 00:44:42;;;;;;;2.85;1.70;;;8.30;50.80;;;;;;4902606;29;20059;-79
2021/11/23 00:47:08;;;;;;;2.28;1.17;;;8.30;50.90;;;;;;4901013;29;20040;-79
2021/11/23 00:49:34;;;;;;;2.78;1.27;;;8.30;50.90;;;;;;4893413;29;20494;-79
2021/11/23 00:51:59;;;;;;;2.88;1.48;;;8.30;51.10;;;;;;4915062;29;20040;-79
2021/11/23 00:54:25;;;;;;;4.07;1.50;;;8.30;50.90;;;;;;4902133;29;20035;-79
2021/11/23 00:56:51;;;;;;;1.13;0.98;;;8.20;50.80;;;;;;4901402;29;20028;-79
2021/11/23 00:59:17;;;;;;;3.25;1.25;;;8.20;50.90;;;;;;4901537;29;20032;-80
2021/11/23 01:01:43;;;;;;;1.30;1.20;;;8.20;50.80;;;;;;4901223;29;20403;-79
2021/11/23 01:04:09;;;;;;;1.80;1.42;;;8.20;50.80;;;;;;4901690;29;20063;-78
2021/11/23 01:06:35;;;;;;;2.55;1.38;;;8.20;50.80;;;;;;4901884;29;20491;-77
2021/11/23 01:09:03;;;;;;;1.88;1.30;;;8.20;50.80;;;;;;4885582;29;20629;-77
2021/11/23 01:11:30;;;;;;;2.72;1.30;;;8.20;50.90;;;;;;4901316;29;20040;-77
2021/11/23 01:13:56;;;;;;;2.00;1.30;;;8.20;50.90;;;;;;4901937;29;20423;-77
2021/11/23 01:16:22;;;;;;;2.80;1.50;;;8.10;50.90;;;;;;4901837;29;20037;-78
2021/11/23 01:18:47;;;;;;;3.05;1.35;;;8.10;51.00;;;;;;4900711;29;20048;-78
2021/11/23 01:21:14;;;;;;;1.88;1.13;;;8.10;51.00;;;;;;4901374;29;20032;-80
2021/11/23 01:23:41;;;;;;;2.13;1.42;;;8.10;50.90;;;;;;4915038;29;20096;-81
2021/11/23 01:26:08;;;;;;;1.33;0.93;;;8.10;50.90;;;;;;4901498;29;20884;-80
2021/11/23 01:28:34;;;;;;;1.70;1.30;;;8.10;50.90;;;;;;4901452;29;20068;-81
2021/11/23 01:31:02;;;;;;;2.10;1.40;;;8.10;50.90;;;;;;4900365;29;20489;-81
2021/11/23 01:33:28;;;;;;;2.58;1.30;;;8.10;50.90;;;;;;4900891;29;20397;-81
2021/11/23 01:35:54;;;;;;;2.97;1.40;;;8.10;50.80;;;;;;4901141;29;20042;-79
2021/11/23 01:38:20;;;;;;;3.20;1.40;;;8.00;50.80;;;;;;4896344;29;20048;-80
2021/11/23 01:40:46;;;;;;;2.88;1.60;;;8.00;50.80;;;;;;4899814;29;21411;-79
2021/11/23 01:43:12;;;;;;;2.97;1.40;;;8.00;50.80;;;;;;4900123;29;20033;-80
2021/11/23 01:45:40;;;;;;;2.20;1.40;;;8.00;50.80;;;;;;4900354;29;20055;-79
2021/11/23 01:48:07;;;;;;;1.73;1.40;;;8.00;50.80;;;;;;4901287;29;20059;-79
2021/11/23 01:50:35;;;;;;;1.85;1.35;;;8.00;50.80;;;;;;4893014;29;20052;-80
2021/11/23 01:53:04;;;;;;;5.13;1.50;;;8.00;50.90;;;;;;4900131;29;20074;-80
2021/11/23 01:55:33;;;;;;;2.45;1.30;;;8.00;50.80;;;;;;4899718;29;20404;-78
2021/11/23 01:57:59;;;;;;;4.07;1.52;;;8.00;50.90;;;;;;4901571;29;20091;-79
2021/11/23 02:00:25;;;;;;;2.53;1.40;;;7.90;50.90;;;;;;4901402;29;20032;-79
2021/11/23 02:02:52;;;;;;;2.88;1.30;;;7.90;50.90;;;;;;4901264;29;20127;-79
2021/11/23 02:05:18;;;;;;;2.70;1.70;;;7.90;50.80;;;;;;4895961;29;20124;-79
2021/11/23 02:07:44;;;;;;;2.42;1.35;;;7.90;50.80;;;;;;4898276;29;20151;-79
2021/11/23 02:10:11;;;;;;;2.55;1.35;;;7.90;50.70;;;;;;4898520;29;20032;-79
2021/11/23 02:12:38;;;;;;;3.10;1.48;;;7.90;50.80;;;;;;4899093;29;20135;-81
2021/11/23 02:15:06;;;;;;;1.98;1.45;;;7.90;50.70;;;;;;4901156;29;20028;-80
2021/11/23 02:17:32;;;;;;;3.00;1.70;;;7.90;50.70;;;;;;4892071;29;20155;-79
2021/11/23 02:19:59;;;;;;;2.72;1.80;;;7.90;50.70;;;;;;4901033;29;20036;-79
2021/11/23 02:22:25;;;;;;;2.75;1.38;;;7.90;50.70;;;;;;4892140;29;20111;-79
2021/11/23 02:24:51;;;;;;;1.88;1.25;;;7.90;50.40;;;;;;4900240;29;20119;-79
2021/11/23 02:27:16;;;;;;;3.10;2.03;;;7.80;50.30;;;;;;4900568;29;20131;-79
2021/11/23 02:29:43;;;;;;;4.22;1.95;;;7.80;50.20;;;;;;4900570;29;20043;-78
2021/11/23 02:32:09;;;;;;;2.45;1.67;;;7.80;50.10;;;;;;4898188;29;20165;-78
2021/11/23 02:34:35;;;;;;;2.30;1.60;;;7.70;50.00;;;;;;4900559;29;20036;-77
2021/11/23 02:37:01;;;;;;;3.20;1.55;;;7.80;50.00;;;;;;4900772;29;20099;-77
2021/11/23 02:39:27;;;;;;;5.18;2.35;;;7.70;50.00;;;;;;4899870;29;20633;-80
2021/11/23 02:41:54;;;;;;;3.42;1.83;;;7.70;50.00;;;;;;4898952;29;20184;-79
2021/11/23 02:44:19;;;;;;;2.05;1.60;;;7.70;50.00;;;;;;4899330;29;20116;-79
2021/11/23 02:46:46;;;;;;;2.53;1.40;;;7.70;49.90;;;;;;4901089;29;20072;-78
2021/11/23 02:49:13;;;;;;;2.70;1.80;;;7.60;49.90;;;;;;4900174;29;20150;-78
2021/11/23 02:51:40;;;;;;;2.67;1.80;;;7.60;49.80;;;;;;4900004;29;20047;-79
2021/11/23 02:54:06;;;;;;;2.90;1.63;;;7.60;49.80;;;;;;4900667;29;20044;-80
2021/11/23 02:56:32;;;;;;;2.72;1.90;;;7.60;49.70;;;;;;4891447;29;20468;-79
2021/11/23 02:58:58;;;;;;;4.72;1.70;;;7.60;49.80;;;;;;4883193;29;20119;-77
2021/11/23 03:01:27;;;;;;;2.72;1.77;;;7.50;49.70;;;;;;4899405;29;20499;-78
2021/11/23 03:03:54;;;;;;;4.40;1.70;;;7.50;49.70;;;;;;4897619;29;20056;-78
2021/11/23 03:06:21;;;;;;;3.88;1.65;;;7.50;49.70;;;;;;4895581;29;20039;-80
2021/11/23 03:08:49;;;;;;;1.88;1.35;;;7.50;49.70;;;;;;4898744;29;21389;-79
2021/11/23 03:11:16;;;;;;;2.72;1.60;;;7.50;49.70;;;;;;4896967;29;20063;-78
2021/11/23 03:13:43;;;;;;;2.78;1.50;;;7.50;49.70;;;;;;4900762;29;20189;-78
2021/11/23 03:16:09;;;;;;;2.28;1.50;;;7.50;49.70;;;;;;4892749;29;20050;-79
2021/11/23 03:18:35;;;;;;;2.08;1.38;;;7.50;49.70;;;;;;4899980;29;20507;-78
2021/11/23 03:21:01;;;;;;;2.80;1.45;;;7.40;49.70;;;;;;4899353;29;20039;-80
2021/11/23 03:23:27;;;;;;;3.05;1.55;;;7.40;49.80;;;;;;4902071;29;20037;-79
2021/11/23 03:25:53;;;;;;;1.48;1.30;;;7.40;49.70;;;;;;4901421;29;20076;-79
2021/11/23 03:28:19;;;;;;;1.60;1.50;;;7.40;49.60;;;;;;4893109;29;20033;-79
2021/11/23 03:30:45;;;;;;;2.10;1.30;;;7.40;49.70;;;;;;4900169;29;20048;-79
2021/11/23 03:33:11;;;;;;;2.20;1.30;;;7.40;49.60;;;;;;4899663;29;20048;-79
2021/11/23 03:35:40;;;;;;;2.80;1.67;;;7.40;49.60;;;;;;4897095;29;20039;-81
2021/11/23 03:38:08;;;;;;;2.35;1.30;;;7.30;49.70;;;;;;4897191;29;20040;-81
2021/11/23 03:40:37;;;;;;;3.70;1.25;;;7.30;49.70;;;;;;4911499;29;20074;-81
2021/11/23 03:43:04;;;;;;;2.65;1.20;;;7.30;49.80;;;;;;4900907;29;20122;-82
2021/11/23 03:45:31;;;;;;;3.35;1.60;;;7.30;49.90;;;;;;4894280;29;20047;-80
2021/11/23 03:47:58;;;;;;;2.85;1.30;;;7.30;49.80;;;;;;4896862;29;20405;-80
2021/11/23 03:50:26;;;;;;;2.25;1.40;;;7.30;50.00;;;;;;4895003;29;20256;-82
2021/11/23 03:52:52;;;;;;;2.95;1.70;;;7.30;49.90;;;;;;4894844;29;20089;-80
2021/11/23 03:55:20;;;;;;;2.25;1.25;;;7.30;49.80;;;;;;4894821;29;20040;-81
2021/11/23 03:57:48;;;;;;;1.38;1.05;;;7.30;49.90;;;;;;4899899;29;20074;-80
2021/11/23 04:00:16;;;;;;;4.53;1.50;;;7.20;50.00;;;;;;4884163;29;20500;-80
2021/11/23 04:02:48;;;;;;;3.70;1.40;;;7.20;50.00;;;;;;4896482;29;20032;-81
2021/11/23 04:05:14;;;;;;;2.47;1.60;;;7.20;50.00;;;;;;4898296;29;20025;-81
2021/11/23 04:07:41;;;;;;;2.40;0.98;;;7.20;49.90;;;;;;4899896;29;20028;-81
2021/11/23 04:10:11;;;;;;;1.77;1.30;;;7.20;50.00;;;;;;4893319;29;21620;-80
2021/11/23 04:12:38;;;;;;;3.95;1.67;;;7.20;50.50;;;;;;4896833;29;20072;-79
2021/11/23 04:15:06;;;;;;;4.43;1.08;;;7.20;49.90;;;;;;4900065;29;20131;-80
2021/11/23 04:17:32;;;;;;;2.83;1.10;;;7.20;49.90;;;;;;4893014;29;20044;-80
2021/11/23 04:19:58;;;;;;;5.53;1.13;;;7.20;49.80;;;;;;4905151;29;20036;-80
2021/11/23 04:22:25;;;;;;;3.75;1.20;;;7.20;49.80;;;;;;4907835;29;20130;-79
2021/11/23 04:24:51;;;;;;;2.33;1.50;;;7.20;49.90;;;;;;4906796;29;20060;-79
2021/11/23 04:27:18;;;;;;;2.83;1.17;;;7.20;49.90;;;;;;4889730;29;20035;-80
2021/11/23 04:29:44;;;;;;;1.58;1.10;;;7.20;49.80;;;;;;4900589;29;20504;-77
2021/11/23 04:32:10;;;;;;;1.60;1.20;;;7.20;50.00;;;;;;4895227;29;20075;-80
2021/11/23 04:34:36;;;;;;;3.15;1.30;;;7.10;50.00;;;;;;4898317;29;20041;-81
2021/11/23 04:37:03;;;;;;;2.70;1.25;;;7.10;50.00;;;;;;4899405;29;20400;-80
2021/11/23 04:39:29;;;;;;;1.75;1.00;;;7.10;49.90;;;;;;4894775;29;20602;-82
2021/11/23 04:41:55;;;;;;;3.75;1.33;;;7.10;50.00;;;;;;4916835;29;20131;-80
2021/11/23 04:44:20;;;;;;;1.77;1.20;;;7.10;50.00;;;;;;4898424;29;20041;-78
2021/11/23 04:46:46;;;;;;;1.98;1.35;;;7.10;50.10;;;;;;4916723;29;20036;-80
2021/11/23 04:49:12;;;;;;;4.88;1.40;;;7.10;50.00;;;;;;4899896;29;20040;-79
2021/11/23 04:51:38;;;;;;;1.60;1.27;;;7.10;50.00;;;;;;4900662;29;20103;-80
2021/11/23 04:54:04;;;;;;;3.92;1.30;;;7.10;50.20;;;;;;4901979;29;20047;-80
2021/11/23 04:56:30;;;;;;;1.50;1.10;;;7.10;50.30;;;;;;4901659;29;20308;-80
2021/11/23 04:58:56;;;;;;;3.95;1.38;;;7.10;50.30;;;;;;4899578;29;20499;-81
2021/11/23 05:01:23;;;;;;;3.38;1.40;;;7.10;50.40;;;;;;4899673;29;20037;-81
2021/11/23 05:03:49;;;;;;;3.38;1.30;;;7.00;51.00;;;;;;4900577;29;20476;-81
2021/11/23 05:06:15;;;;;;;1.63;1.17;;;7.00;50.60;;;;;;4893393;29;20033;-81
2021/11/23 05:08:40;;;;;;;2.17;1.20;;;7.00;50.70;;;;;;4901015;29;20520;-80
2021/11/23 05:11:09;;;;;;;4.25;1.17;;;7.10;50.70;;;;;;4902077;29;20051;-80
2021/11/23 05:13:35;;;;;;;1.63;1.15;;;7.00;50.70;;;;;;4899768;29;20444;-81
2021/11/23 05:16:00;;;;;;;2.75;1.00;;;7.10;50.90;;;;;;4901267;29;20040;-79
2021/11/23 05:18:26;;;;;;;6.07;1.50;;;7.10;51.00;;;;;;4901429;29;20138;-80
2021/11/23 05:20:52;;;;;;;3.05;1.20;;;7.10;50.90;;;;;;4900521;29;20036;-78
2021/11/23 05:23:18;;;;;;;3.10;1.45;;;7.10;50.90;;;;;;4915823;29;20060;-80
2021/11/23 05:25:44;;;;;;;2.42;1.27;;;7.00;50.80;;;;;;4901439;29;20083;-81
2021/11/23 05:28:10;;;;;;;3.05;1.20;;;7.10;50.80;;;;;;4901227;29;20591;-81
2021/11/23 05:30:36;;;;;;;5.35;1.50;;;7.10;50.70;;;;;;4901958;29;20052;-82
2021/11/23 05:33:02;;;;;;;4.43;1.65;;;7.10;50.70;;;;;;4901362;29;20078;-82
2021/11/23 05:35:28;;;;;;;2.13;1.25;;;7.10;50.70;;;;;;4899595;29;20043;-81
2021/11/23 05:37:54;;;;;;;3.70;1.52;;;7.10;50.70;;;;;;4904132;29;20400;-80
2021/11/23 05:40:21;;;;;;;1.95;1.33;;;7.10;50.80;;;;;;4900194;29;20395;-80
2021/11/23 05:42:47;;;;;;;1.85;1.00;;;7.00;50.80;;;;;;4900976;29;20040;-79
2021/11/23 05:45:13;;;;;;;3.75;1.98;;;7.00;50.70;;;;;;4884144;29;20365;-80
2021/11/23 05:47:41;;;;;;;4.57;1.58;;;7.10;50.80;;;;;;4901296;29;20096;-79
2021/11/23 05:50:07;;;;;;;2.42;1.48;;;7.10;50.90;;;;;;4899895;29;20044;-80
2021/11/23 05:52:33;;;;;;;2.25;1.42;;;7.00;50.80;;;;;;4902488;29;20088;-79
2021/11/23 05:54:59;;;;;;;3.38;1.33;;;7.10;51.20;;;;;;4899977;29;20118;-79
2021/11/23 05:57:25;;;;;;;2.65;1.58;;;7.00;52.60;;;;;;4900687;29;20059;-79
2021/11/23 05:59:51;;;;;;;5.15;1.88;;;7.00;53.60;;;;;;4915745;29;20055;-81
2021/11/23 06:02:17;;;;;;;4.18;1.40;;;7.00;55.00;;;;;;4891733;29;20116;-80
2021/11/23 06:04:43;;;;;;;2.03;1.30;;;7.00;55.80;;;;;;4916285;29;20119;-80
2021/11/23 06:07:08;;;;;;;5.15;1.60;;;7.00;56.60;;;;;;4901237;29;20128;-80
2021/11/23 06:09:34;;;;;;;3.40;1.25;;;7.00;57.00;;;;;;4901915;29;20475;-80
2021/11/23 06:12:00;;;;;;;4.88;1.50;;;7.10;57.30;;;;;;4883859;29;20055;-80
2021/11/23 06:14:26;;;;;;;3.38;1.52;;;7.10;57.40;;;;;;4901626;29;20076;-81
2021/11/23 06:16:53;;;;;;;2.45;1.45;;;7.10;57.60;;;;;;4899408;29;20040;-79
2021/11/23 06:19:19;;;;;;;3.08;1.50;;;7.20;57.70;;;;;;4901159;29;20045;-79
2021/11/23 06:21:45;;;;;;;3.88;1.95;;;7.20;57.70;;;;;;4902279;29;20166;-79
2021/11/23 06:24:11;;;;;;;3.72;1.70;;;7.30;58.30;;;;;;4900605;29;20424;-79
2021/11/23 06:26:37;;;;;;;5.10;1.70;;;7.30;57.80;;;;;;4900233;29;20036;-79
2021/11/23 06:29:04;;;;;;;2.83;1.55;;;7.40;58.10;;;;;;4901731;29;20826;-78
2021/11/23 06:31:30;;;;;;;4.13;1.70;;;7.40;58.10;;;;;;4899874;29;20350;-79
2021/11/23 06:33:57;;;;;;;3.65;1.60;;;7.40;58.10;;;;;;4901683;29;20044;-79
2021/11/23 06:36:23;;;;;;;4.53;2.47;;;7.50;58.20;;;;;;4901124;29;20076;-80
2021/11/23 06:38:51;;;;;;;3.88;2.03;;;7.50;58.10;;;;;;4913739;29;20518;-80
2021/11/23 06:41:18;;;;;;;4.40;1.85;;;7.50;58.10;;;;;;4898741;29;20251;-79
2021/11/23 06:43:44;;;;;;;4.85;1.75;;;7.60;58.10;;;;;;4915995;29;21491;-80
2021/11/23 06:46:10;;;;;;;2.72;1.48;;;7.60;58.20;;;;;;4901989;29;20036;-81
2021/11/23 06:48:36;;;;;;;4.88;1.98;;;7.70;58.60;;;;;;4914682;29;20066;-79
2021/11/23 06:51:03;;;;;;;3.90;2.05;;;7.70;57.80;;;;;;4883847;29;20094;-80
2021/11/23 06:53:29;;;;;;;6.10;1.75;;;7.70;57.80;;;;;;4899856;29;20143;-80
2021/11/23 06:55:55;;;;;;;4.05;2.42;;;7.70;57.90;;;;;;4900500;29;20068;-79
2021/11/23 06:58:21;;;;;;;5.03;1.70;;;7.80;57.80;;;;;;4898356;29;20040;-79
2021/11/23 07:00:47;;;;;;;4.93;1.88;;;7.80;57.70;;;;;;4885991;29;20176;-78
2021/11/23 07:03:13;;;;;;;4.05;2.00;;;7.90;57.70;;;;;;4902962;29;20032;-80
2021/11/23 07:05:39;;;;;;;4.53;1.83;;;7.90;57.70;;;;;;4885587;29;20040;-80
2021/11/23 07:08:05;;;;;;;7.13;2.20;;;7.90;58.30;;;;;;4902190;29;20025;-79
2021/11/23 07:10:31;;;;;;;2.72;2.00;;;8.00;58.70;;;;;;4902047;29;20131;-81
2021/11/23 07:12:58;;;;;;;5.88;2.58;;;8.00;58.00;;;;;;4901974;29;20041;-82
2021/11/23 07:15:24;;;;;;;7.93;2.38;;;8.00;57.40;;;;;;4903439;29;20095;-81
2021/11/23 07:17:50;;;;;;;7.88;2.60;;;8.00;57.10;;;;;;4875816;29;20036;-80
2021/11/23 07:20:16;;;;;;;5.00;2.70;;;7.90;56.70;;;;;;4896877;29;20040;-81
2021/11/23 07:22:42;;;;;;;5.20;2.83;;;8.00;56.40;;;;;;4901140;29;20036;-81
2021/11/23 07:25:09;;;;;;;5.65;3.08;;;7.90;56.20;;;;;;4894800;29;20069;-80
2021/11/23 07:27:35;;;;;;;11.38;4.60;;;7.90;56.20;;;;;;4906149;29;20064;-80
2021/11/23 07:30:01;;;;;;;8.93;4.40;;;7.90;56.10;;;;;;4901085;29;20036;-82
2021/11/23 07:32:27;;;;;;;5.30;2.90;;;7.90;56.00;;;;;;4900025;29;20048;-81
2021/11/23 07:34:53;;;;;;;6.40;3.20;;;7.90;57.50;;;;;;4900655;29;20523;-80
2021/11/23 07:37:19;;;;;;;6.75;3.53;;;8.00;60.30;;;;;;4901854;29;20037;-80
2021/11/23 07:39:47;;;;;;;5.50;2.80;;;8.00;59.30;;;;;;4885638;29;20462;-81
2021/11/23 07:42:14;;;;;;;7.18;2.90;;;8.00;58.10;;;;;;4885234;29;20032;-81
2021/11/23 07:44:40;;;;;;;6.05;2.90;;;8.10;57.50;;;;;;4882601;29;20509;-79
2021/11/23 07:47:06;;;;;;;6.13;3.20;;;8.00;56.80;;;;;;4893098;29;20070;-81
2021/11/23 07:49:32;;;;;;;7.05;3.25;;;8.00;56.40;;;;;;4890285;29;20043;-81
2021/11/23 07:51:58;;;;;;;6.55;2.40;;;8.00;56.20;;;;;;4893827;29;20036;-81
2021/11/23 07:54:24;;;;;;;6.50;2.20;;;8.00;58.00;;;;;;4897710;29;20036;-80
2021/11/23 07:56:50;;;;;;;7.80;2.40;;;8.20;62.80;;;;;;4911669;29;20052;-81
2021/11/23 07:59:16;;;;;;;9.65;2.60;;;8.50;63.70;;;;;;4894361;29;20041;-82
2021/11/23 08:01:42;;;;;;;5.68;3.03;;;8.70;62.10;;;;;;4888678;29;20032;-83
2021/11/23 08:04:08;;;;;;;9.52;2.70;;;8.70;59.80;;;;;;4901174;29;20044;-82
2021/11/23 08:06:34;;;;;;;8.63;2.78;;;8.80;58.10;;;;;;4898855;29;20095;-85
2021/11/23 08:09:00;;;;;;;10.00;2.50;;;8.70;57.10;;;;;;4895760;29;20139;-83
2021/11/23 08:11:26;;;;;;;3.78;2.60;;;8.70;56.30;;;;;;4888340;29;20035;-84
2021/11/23 08:13:53;;;;;;;8.63;3.63;;;8.70;55.90;;;;;;4899656;29;20058;-88
2021/11/23 08:16:20;;;;;;;7.40;2.88;;;8.70;55.60;;;;;;4884021;29;20096;-90
2021/11/23 08:18:46;;;;;;;5.32;2.60;;;8.60;55.30;;;;;;4896612;29;20036;-88
2021/11/23 08:21:12;;;;;;;4.43;2.35;;;8.60;55.10;;;;;;4892689;29;20420;-88
2021/11/23 08:23:38;;;;;;;4.07;2.50;;;8.60;55.00;;;;;;4906115;29;20079;-87
2021/11/23 08:26:06;;;;;;;7.65;2.70;;;8.60;54.90;;;;;;4911574;29;20029;-89
2021/11/23 08:28:32;;;;;;;4.38;2.08;;;8.60;54.90;;;;;;4899693;29;20036;-89
2021/11/23 08:30:58;;;;;;;8.13;2.67;;;8.50;54.60;;;;;;4910646;29;20059;-88
2021/11/23 08:33:24;;;;;;;5.30;2.50;;;8.50;54.50;;;;;;4916172;29;20040;-89
2021/11/23 08:35:51;;;;;;;5.63;2.80;;;8.50;54.40;;;;;;4909744;29;20044;-88
2021/11/23 08:38:17;;;;;;;5.32;2.50;;;8.50;54.30;;;;;;4892976;29;20040;-89
2021/11/23 08:40:43;;;;;;;2.85;2.08;;;8.50;54.20;;;;;;4903920;29;20040;-88
2021/11/23 08:43:10;;;;;;;6.07;2.40;;;8.50;54.20;;;;;;4896259;29;20370;-88
2021/11/23 08:45:37;;;;;;;3.03;2.00;;;8.50;54.20;;;;;;4883152;29;20500;-89
2021/11/23 08:48:04;;;;;;;6.20;2.65;;;8.50;54.10;;;;;;4916486;29;20123;-89
2021/11/23 08:50:30;;;;;;;5.40;2.60;;;8.40;54.00;;;;;;4899331;29;20565;-87
2021/11/23 08:52:59;;;;;;;3.63;2.30;;;8.40;54.00;;;;;;4905583;29;20135;-88
2021/11/23 08:55:26;;;;;;;6.05;2.20;;;8.40;53.90;;;;;;4884084;29;20041;-87
2021/11/23 08:57:54;;;;;;;5.10;1.90;;;8.40;54.00;;;;;;4892047;29;20059;-88
2021/11/23 09:00:22;;;;;;;3.15;1.90;;;8.40;54.00;;;;;;4894114;29;20523;-89
2021/11/23 09:02:51;;;;;;;6.80;2.60;;;8.40;54.10;;;;;;4882746;29;20073;-91
2021/11/23 09:05:20;;;;;;;6.18;2.40;;;8.40;54.10;;;;;;4891339;29;20123;-90
2021/11/23 09:07:47;;;;;;;8.40;2.60;;;8.40;54.10;;;;;;4889837;29;20036;-89
2021/11/23 09:10:23;;;;;;;3.88;2.70;;;8.30;54.10;;;;;;4883979;29;20040;-89
2021/11/23 09:12:52;;;;;;;13.63;6.88;;;8.30;54.10;;;;;;4892605;29;20040;-88
2021/11/23 09:15:18;;;;;;;9.65;4.95;;;8.30;54.20;;;;;;4907894;29;20536;-88
2021/11/23 09:17:45;;;;;;;11.38;4.80;;;8.30;54.20;;;;;;4878261;29;20063;-87
2021/11/23 09:20:13;;;;;;;8.98;4.90;;;8.30;54.20;;;;;;4904197;29;20557;-88
2021/11/23 09:22:40;;;;;;;9.50;4.13;;;8.30;54.20;;;;;;4898399;29;20036;-88
2021/11/23 09:25:07;;;;;;;9.85;4.07;;;8.30;54.20;;;;;;4883702;29;20059;-89
2021/11/23 09:27:33;;;;;;;9.10;3.90;;;8.30;54.10;;;;;;4907589;29;20042;-88
2021/11/23 09:29:59;;;;;;;7.07;3.47;;;8.30;54.20;;;;;;4892144;29;20024;-90
2021/11/23 09:32:27;;;;;;;12.35;4.25;;;8.30;54.20;;;;;;4890741;29;20040;-86
2021/11/23 09:34:53;;;;;;;6.13;3.47;;;8.30;54.10;;;;;;4909593;29;20066;-88
2021/11/23 09:37:19;;;;;;;8.15;3.10;;;8.30;54.30;;;;;;4902756;29;20047;-88
2021/11/23 09:39:45;;;;;;;5.20;3.10;;;8.30;54.80;;;;;;4901770;29;20037;-87
2021/11/23 09:42:12;;;;;;;5.72;2.83;;;8.30;55.50;;;;;;4884892;29;20024;-88
2021/11/23 09:44:40;;;;;;;7.97;3.05;;;8.30;57.30;;;;;;4883822;29;20131;-88
2021/11/23 09:47:06;;;;;;;5.22;2.40;;;8.40;56.80;;;;;;4896262;29;20063;-87
2021/11/23 09:49:32;;;;;;;3.85;2.50;;;8.40;56.30;;;;;;4897453;29;20495;-90
2021/11/23 09:51:58;;;;;;;5.47;2.45;;;8.30;56.00;;;;;;4914872;29;20060;-89
2021/11/23 09:54:24;;;;;;;7.57;2.50;;;8.30;55.90;;;;;;4916214;29;20503;-90
2021/11/23 09:56:50;;;;;;;4.85;2.88;;;8.40;55.70;;;;;;4884066;29;20139;-90
2021/11/23 09:59:17;;;;;;;4.82;2.63;;;8.30;55.60;;;;;;4904149;29;20036;-90
2021/11/23 10:01:46;;;;;;;4.95;2.42;;;8.40;55.40;;;;;;4891699;29;20047;-90
2021/11/23 10:04:12;;;;;;;6.50;2.63;;;8.30;55.20;;;;;;4900150;29;20135;-91
2021/11/23 10:06:53;;;;;;;5.22;3.45;;;8.30;55.20;;;;;;4901940;29;20203;-90
2021/11/23 10:09:36;;;;;;;18.38;3.08;;;8.30;55.00;;;;;;4915723;29;20032;-89
2021/11/23 10:12:22;;;;;;;4.53;2.85;;;8.30;54.90;;;;;;4906591;29;20028;-90
2021/11/23 10:15:08;;;;;;;5.20;2.75;;;8.30;54.80;;;;;;4881205;29;20656;-89
2021/11/23 10:17:34;;;;;;;6.28;2.78;;;8.30;54.70;;;;;;4903525;29;20036;-91
2021/11/23 10:20:00;;;;;;;7.80;2.70;;;8.30;54.50;;;;;;4899812;29;20047;-90
2021/11/23 10:22:37;;;;;;;7.63;2.63;;;8.30;54.40;;;;;;4882886;29;20398;-89
2021/11/23 10:25:07;;;;;;;5.63;2.50;;;8.30;54.60;;;;;;4900158;29;20554;-90
2021/11/23 10:27:41;;;;;;;6.82;2.50;;;8.30;54.50;;;;;;4892119;29;20036;-89
2021/11/23 10:30:08;;;;;;;3.90;2.58;;;8.30;54.40;;;;;;4899272;29;20060;-90
2021/11/23 10:32:48;;;;;;;10.18;3.60;;;8.30;54.40;;;;;;4884067;29;20036;-90
2021/11/23 10:35:18;;;;;;;15.25;3.58;;;8.30;54.40;;;;;;4896624;29;20519;-90
2021/11/23 10:37:45;;;;;;;5.25;2.85;;;8.30;54.40;;;;;;4904763;29;20140;-88
2021/11/23 10:40:11;;;;;;;7.03;2.92;;;8.30;54.20;;;;;;4908209;29;20147;-91
2021/11/23 10:42:38;;;;;;;5.38;2.88;;;8.30;54.10;;;;;;4887862;29;20040;-90
2021/11/23 10:45:09;;;;;;;7.38;2.75;;;8.30;54.00;;;;;;4897760;29;20046;-86
2021/11/23 10:47:41;;;;;;;5.93;2.90;;;8.30;54.00;;;;;;4926089;29;20068;-90
2021/11/23 10:50:11;;;;;;;6.85;3.10;;;8.30;54.00;;;;;;4904494;29;20032;-84
2021/11/23 10:52:42;;;;;;;4.60;3.00;;;8.30;54.00;;;;;;4909010;29;20044;-86
2021/11/23 10:55:23;;;;;;;6.05;2.90;;;8.30;53.90;;;;;;4932543;29;20028;-85
2021/11/23 10:57:50;;;;;;;6.00;2.80;;;8.30;53.90;;;;;;4893189;29;20033;-89
2021/11/23 11:00:17;;;;;;;9.93;2.75;;;8.30;53.80;;;;;;4891503;29;20036;-91
2021/11/23 11:02:44;;;;;;;5.55;2.88;;;8.30;53.70;;;;;;4889602;29;20177;-91
2021/11/23 11:05:12;;;;;;;6.43;2.45;;;8.30;53.70;;;;;;4899491;29;20024;-90
2021/11/23 11:07:39;;;;;;;8.05;3.42;;;8.30;53.60;;;;;;4912046;29;20036;-88
2021/11/23 11:10:07;;;;;;;5.95;2.80;;;8.30;53.70;;;;;;4909808;29;20037;-84
2021/11/23 11:12:34;;;;;;;5.80;2.88;;;8.30;53.70;;;;;;4939065;29;20043;-84
2021/11/23 11:15:01;;;;;;;7.60;2.53;;;8.30;53.70;;;;;;4903713;29;20076;-88
2021/11/23 11:17:28;;;;;;;4.65;2.92;;;8.30;53.60;;;;;;4889468;29;20040;-90
2021/11/23 11:19:56;;;;;;;5.40;2.80;;;8.30;53.50;;;;;;4886427;29;20511;-91
2021/11/23 11:22:24;;;;;;;5.72;2.53;;;8.30;53.40;;;;;;4898939;29;20036;-90
2021/11/23 11:25:18;;;;;;;7.95;2.83;;;8.30;53.70;;;;;;4891088;29;20028;-87
2021/11/23 11:27:48;;;;;;;6.88;2.65;;;8.30;53.50;;;;;;4885929;29;20032;-83
2021/11/23 11:30:35;;;;;;;9.30;2.97;;;8.30;54.00;;;;;;4883208;29;20059;-84
2021/11/23 11:33:04;;;;;;;8.32;2.50;;;8.30;53.40;;;;;;4893697;29;20036;-84
2021/11/23 11:35:33;;;;;;;8.10;2.90;;;8.30;53.40;;;;;;4871847;29;20047;-85
2021/11/23 11:38:07;;;;;;;6.47;2.70;;;8.30;53.40;;;;;;4902543;29;20464;-85
2021/11/23 11:40:36;;;;;;;5.47;2.90;;;8.30;53.40;;;;;;4902910;29;20032;-85
2021/11/23 11:43:09;;;;;;;6.60;2.50;;;8.30;53.30;;;;;;4897850;29;20075;-85
2021/11/23 11:45:41;;;;;;;6.60;2.10;;;8.30;53.20;;;;;;4888111;29;20042;-82
2021/11/23 11:51:01;;;;;;;3.90;2.08;;;8.30;53.40;;;;;;4900722;29;20040;-83
2021/11/23 11:53:36;;;;;;;3.80;2.20;;;8.20;53.30;;;;;;4903375;29;20419;-81
2021/11/23 11:56:04;;;;;;;5.43;2.63;;;8.30;53.50;;;;;;4894086;29;20048;-83
2021/11/23 11:58:53;;;;;;;4.82;2.17;;;8.30;54.10;;;;;;4903172;29;20096;-82
2021/11/23 12:01:41;;;;;;;5.45;2.70;;;8.30;53.60;;;;;;4903148;29;20044;-82
2021/11/23 12:04:19;;;;;;;6.22;2.55;;;8.20;53.60;;;;;;4899153;29;20043;-83
2021/11/23 12:06:56;;;;;;;6.78;2.38;;;8.20;53.60;;;;;;4897650;29;20369;-81
2021/11/23 12:09:31;;;;;;;4.53;1.92;;;8.20;53.60;;;;;;4899495;29;20036;-83
2021/11/23 12:12:09;;;;;;;5.73;2.60;;;8.20;53.60;;;;;;4914229;29;20091;-83
2021/11/23 12:15:13;;;;;;;7.18;2.78;;;8.20;53.70;;;;;;4890608;29;20080;-83
2021/11/23 12:18:26;;;;;;;4.63;2.30;;;8.20;53.60;;;;;;4863673;29;20044;-82
2021/11/23 12:21:09;;;;;;;6.55;2.40;;;8.20;53.70;;;;;;4810575;29;20058;-82
2021/11/23 12:23:49;;;;;;;4.95;2.22;;;8.20;53.70;;;;;;4825056;29;20044;-83
2021/11/23 12:26:17;;;;;;;4.47;2.47;;;8.20;53.60;;;;;;4902246;29;20534;-84
2021/11/23 12:28:58;;;;;;;8.68;2.70;;;8.20;53.50;;;;;;4904381;29;20099;-82
2021/11/23 12:31:28;;;;;;;5.85;2.40;;;8.20;53.30;;;;;;4907830;29;20048;-83
2021/11/23 12:34:02;;;;;;;6.63;2.78;;;8.20;52.60;;;;;;4887967;29;20036;-83
2021/11/23 12:36:33;;;;;;;6.20;2.55;;;8.20;52.00;;;;;;4900113;29;20064;-83
2021/11/23 12:39:24;;;;;;;6.50;2.33;;;8.10;51.60;;;;;;4899260;29;20047;-86
2021/11/23 12:42:00;;;;;;;9.55;2.63;;;8.10;51.40;;;;;;4915741;29;20168;-83
2021/11/23 12:44:34;;;;;;;4.53;2.45;;;8.00;51.40;;;;;;4900841;29;20047;-86
2021/11/23 12:47:13;;;;;;;5.10;2.30;;;8.00;51.40;;;;;;4901193;29;20108;-83
2021/11/23 12:49:40;;;;;;;7.05;2.40;;;7.90;51.20;;;;;;4901668;29;20033;-85
2021/11/23 12:52:09;;;;;;;4.78;2.00;;;7.90;51.70;;;;;;4901033;29;20041;-85
2021/11/23 12:54:48;;;;;;;3.72;1.80;;;7.90;51.60;;;;;;4890665;29;20064;-86
2021/11/23 12:57:16;;;;;;;8.38;2.00;;;7.90;51.40;;;;;;4900108;29;20031;-85
2021/11/23 12:59:51;;;;;;;4.00;1.85;;;7.80;51.20;;;;;;4900743;29;20495;-82
2021/11/23 13:02:36;;;;;;;4.07;2.00;;;7.80;51.00;;;;;;4899790;29;20044;-84
2021/11/23 13:05:28;;;;;;;4.35;1.67;;;7.70;50.90;;;;;;4915882;29;20127;-85